Terminal Aerodrome Forecast
Issued by NWS

Home | Current Version | Previous Version | Text Only | Print | Product List | Glossary On
Versions: 1 2 3 4 5 6 7 8 9 10 11 12 13 14 15 16 17
855
FTUS46 KLOX 162357
TAFPMD
TAF
KPMD 162357Z 1700/1724 33010KT P6SM SKC
     FM170400 02008KT P6SM SKC
     FM171800 06015G25KT P6SM SKC=

USA.gov is the U.S. government's official web portal to all federal, state and local government web resources and services.